Time;durP1;ratioP1;P1;durP2;ratioP2;P2;SDS_P1;SDS_P2;PMS_P1;PMS_P2;Temp;Humidity;BMP_temperature;BMP_pressure;BME280_temperature;BME280_humidity;BME280_pressure;Samples;Min_cycle;Max_cycle;Signal;HPM_P1;HPM_P2
2021/12/28 00:01:05;;;;;;;;;;;6.00;99.90;;;;;;5035846;28;19971;-75
2021/12/28 00:03:38;;;;;;;;;;;6.00;99.90;;;;;;5051894;28;19927;-75
2021/12/28 00:06:17;;;;;;;;;;;5.90;99.90;;;;;;5036711;28;20286;-74
2021/12/28 00:08:49;;;;;;;;;;;5.90;99.90;;;;;;5019040;28;19924;-75
2021/12/28 00:11:16;;;;;;;;;;;5.80;99.90;;;;;;5018356;28;19924;-74
2021/12/28 00:13:48;;;;;;;;;;;5.80;99.90;;;;;;5034980;28;19925;-74
2021/12/28 00:16:32;;;;;;;;;;;5.80;99.90;;;;;;5052543;28;20024;-74
2021/12/28 00:18:59;;;;;;;;;;;5.80;99.90;;;;;;5034562;28;19968;-74
2021/12/28 00:21:26;;;;;;;;;;;5.80;99.90;;;;;;5034346;28;19931;-74
2021/12/28 00:23:54;;;;;;;;;;;5.80;99.90;;;;;;5017619;28;19970;-74
2021/12/28 00:26:22;;;;;;;;;;;5.80;99.90;;;;;;5034400;28;19927;-74
2021/12/28 00:28:54;;;;;;;;;;;5.80;99.90;;;;;;5018551;28;19956;-74
2021/12/28 00:31:26;;;;;;;;;;;5.80;99.90;;;;;;5052163;28;19958;-74
2021/12/28 00:33:58;;;;;;;;;;;5.80;99.90;;;;;;5033579;28;19920;-74
2021/12/28 00:36:25;;;;;;;;;;;5.80;99.90;;;;;;5017509;28;19943;-74
2021/12/28 00:38:52;;;;;;;;;;;5.80;99.90;;;;;;5017639;28;20397;-75
2021/12/28 00:41:23;;;;;;;;;;;5.80;99.90;;;;;;5032681;28;20399;-74
2021/12/28 00:43:50;;;;;;;;;;;5.80;99.90;;;;;;5051169;28;19921;-74
2021/12/28 00:46:22;;;;;;;;;;;5.80;99.90;;;;;;5018163;28;19974;-74
2021/12/28 00:48:54;;;;;;;;;;;5.80;99.90;;;;;;5017898;28;20403;-74
2021/12/28 00:51:26;;;;;;;;;;;5.70;99.90;;;;;;5034451;28;20307;-74
2021/12/28 00:53:52;;;;;;;;;;;5.70;99.90;;;;;;5051117;28;20007;-75
2021/12/28 00:56:24;;;;;;;;;;;5.70;99.90;;;;;;5033810;28;19921;-74
2021/12/28 00:58:56;;;;;;;;;;;5.70;99.90;;;;;;5051465;28;19924;-74
2021/12/28 01:01:22;;;;;;;;;;;5.70;99.90;;;;;;5051578;28;20301;-74
2021/12/28 01:03:54;;;;;;;;;;;5.70;99.90;;;;;;5033988;28;19927;-74
2021/12/28 01:06:21;;;;;;;;;;;5.70;99.90;;;;;;5033685;28;19939;-74
2021/12/28 01:08:52;;;;;;;;;;;5.70;99.90;;;;;;5034484;28;19927;-74
2021/12/28 01:11:20;;;;;;;;;;;5.60;99.90;;;;;;5033779;28;19967;-75
2021/12/28 01:13:48;;;;;;;;;;;5.60;99.90;;;;;;5033779;28;20007;-75
2021/12/28 01:16:15;;;;;;;;;;;5.60;99.90;;;;;;5033951;28;19927;-75
2021/12/28 01:18:42;;;;;;;;;;;5.60;99.90;;;;;;5033710;28;20416;-76
2021/12/28 01:21:14;;;;;;;;;;;5.50;99.90;;;;;;5033517;28;19943;-76
2021/12/28 01:23:45;;;;;;;;;;;5.50;99.90;;;;;;5017274;28;19921;-77
2021/12/28 01:26:12;;;;;;;;;;;5.50;99.90;;;;;;5033656;28;20003;-76
2021/12/28 01:28:40;;;;;;;;;;;5.40;99.90;;;;;;5034613;28;19921;-75
2021/12/28 01:31:13;;;;;;;;;;;5.40;99.90;;;;;;5033981;28;19928;-75
2021/12/28 01:33:40;;;;;;;;;;;5.40;99.90;;;;;;5032097;28;19921;-75
2021/12/28 01:36:11;;;;;;;;;;;5.40;99.90;;;;;;5032607;28;19921;-75
2021/12/28 01:38:38;;;;;;;;;;;5.40;99.90;;;;;;5033819;28;20024;-75
2021/12/28 01:41:10;;;;;;;;;;;5.40;99.90;;;;;;5018784;28;19921;-75
2021/12/28 01:43:43;;;;;;;;;;;5.40;99.90;;;;;;5018063;28;19921;-75
2021/12/28 01:46:11;;;;;;;;;;;5.40;99.90;;;;;;5033741;28;19999;-75
2021/12/28 01:48:39;;;;;;;;;;;5.40;99.90;;;;;;5071474;28;19920;-75
2021/12/28 01:51:07;;;;;;;;;;;5.40;99.90;;;;;;5034552;28;20393;-75
2021/12/28 01:53:39;;;;;;;;;;;5.40;99.90;;;;;;5039221;28;19926;-75
2021/12/28 01:56:13;;;;;;;;;;;5.40;99.90;;;;;;5040388;28;19920;-75
2021/12/28 01:58:41;;;;;;;;;;;5.50;99.90;;;;;;5055875;28;20440;-75
2021/12/28 02:01:11;;;;;;;;;;;5.50;99.90;;;;;;5039453;28;20292;-75
2021/12/28 02:03:44;;;;;;;;;;;5.50;99.90;;;;;;5039624;28;19970;-75
2021/12/28 02:06:18;;;;;;;;;;;5.50;99.90;;;;;;5058005;28;19931;-76
2021/12/28 02:08:45;;;;;;;;;;;5.50;99.90;;;;;;5056365;28;20014;-75
2021/12/28 02:11:12;;;;;;;;;;;5.40;99.90;;;;;;5056439;28;19920;-75
2021/12/28 02:13:40;;;;;;;;;;;5.40;99.90;;;;;;5056602;28;19950;-75
2021/12/28 02:16:11;;;;;;;;;;;5.40;99.90;;;;;;5056571;28;19969;-75
2021/12/28 02:18:39;;;;;;;;;;;5.30;99.90;;;;;;5074509;28;19920;-75
2021/12/28 02:21:07;;;;;;;;;;;5.40;99.90;;;;;;5041854;28;20361;-75
2021/12/28 02:23:36;;;;;;;;;;;5.30;99.90;;;;;;5057266;28;19974;-75
2021/12/28 02:26:05;;;;;;;;;;;5.30;99.90;;;;;;5040992;28;19928;-75
2021/12/28 02:28:37;;;;;;;;;;;5.30;99.90;;;;;;5041066;28;19920;-75
2021/12/28 02:31:09;;;;;;;;;;;5.30;99.90;;;;;;5056876;28;20020;-75
2021/12/28 02:33:39;;;;;;;;;;;5.20;99.90;;;;;;5056049;28;19921;-75
2021/12/28 02:36:12;;;;;;;;;;;5.20;99.90;;;;;;5073980;28;20015;-75
2021/12/28 02:38:39;;;;;;;;;;;5.10;99.90;;;;;;5056093;28;20053;-75
2021/12/28 02:41:07;;;;;;;;;;;5.10;99.90;;;;;;5055961;28;19920;-75
2021/12/28 02:43:35;;;;;;;;;;;5.00;99.90;;;;;;5056057;28;20015;-75
2021/12/28 02:46:03;;;;;;;;;;;5.00;99.90;;;;;;5072693;28;19960;-75
2021/12/28 02:48:37;;;;;;;;;;;4.90;99.90;;;;;;5057430;28;20027;-75
2021/12/28 02:51:13;;;;;;;;;;;4.80;99.90;;;;;;5057500;28;19921;-75
2021/12/28 02:53:41;;;;;;;;;;;4.80;99.90;;;;;;5056644;28;19920;-75
2021/12/28 02:56:08;;;;;;;;;;;4.80;99.90;;;;;;5056104;28;19920;-75
2021/12/28 02:58:44;;;;;;;;;;;4.70;99.90;;;;;;5074217;28;20304;-75
2021/12/28 03:01:14;;;;;;;;;;;4.70;99.90;;;;;;5039704;28;20018;-75
2021/12/28 03:03:47;;;;;;;;;;;4.60;99.90;;;;;;5039406;28;19920;-75
2021/12/28 03:06:20;;;;;;;;;;;4.60;99.90;;;;;;5056234;28;20007;-75
2021/12/28 03:08:51;;;;;;;;;;;4.50;99.90;;;;;;5039551;28;20389;-75
2021/12/28 03:11:18;;;;;;;;;;;4.50;99.90;;;;;;5056161;28;19985;-75
2021/12/28 03:13:49;;;;;;;;;;;4.50;99.90;;;;;;5074022;28;19920;-75
2021/12/28 03:16:16;;;;;;;;;;;4.40;99.90;;;;;;5056592;28;19956;-75
2021/12/28 03:18:45;;;;;;;;;;;4.40;99.90;;;;;;5056117;28;20339;-75
2021/12/28 03:21:14;;;;;;;;;;;4.30;99.90;;;;;;5074115;28;19927;-75
2021/12/28 03:23:42;;;;;;;;;;;4.30;99.90;;;;;;5056428;28;19966;-75
2021/12/28 03:26:10;;;;;;;;;;;4.30;99.90;;;;;;5039813;28;19956;-75
2021/12/28 03:28:39;;;;;;;;;;;4.30;99.90;;;;;;5039350;28;20010;-75
2021/12/28 03:31:08;;;;;;;;;;;4.30;99.90;;;;;;5039254;28;20019;-75
2021/12/28 03:33:42;;;;;;;;;;;4.30;99.90;;;;;;5056920;28;19962;-75
2021/12/28 03:36:14;;;;;;;;;;;4.30;99.90;;;;;;5074087;28;19920;-75
2021/12/28 03:38:46;;;;;;;;;;;4.30;99.90;;;;;;5055706;28;19920;-75
2021/12/28 03:41:15;;;;;;;;;;;4.30;99.90;;;;;;5055536;28;19920;-75
2021/12/28 03:43:47;;;;;;;;;;;4.30;99.90;;;;;;5055129;28;19955;-75
2021/12/28 03:46:22;;;;;;;;;;;4.20;99.90;;;;;;5055404;28;20007;-75
2021/12/28 03:48:49;;;;;;;;;;;4.20;99.90;;;;;;5038518;28;20444;-75
2021/12/28 03:51:16;;;;;;;;;;;4.30;99.90;;;;;;5055204;28;19960;-76
2021/12/28 03:53:48;;;;;;;;;;;4.30;99.90;;;;;;5055241;28;19930;-75
2021/12/28 03:56:20;;;;;;;;;;;4.20;99.90;;;;;;5071902;28;19939;-75
2021/12/28 03:58:53;;;;;;;;;;;4.30;99.90;;;;;;5055107;28;20391;-74
2021/12/28 04:01:22;;;;;;;;;;;4.20;99.90;;;;;;5038507;28;19970;-75
2021/12/28 04:03:54;;;;;;;;;;;4.20;99.90;;;;;;5072997;28;19920;-75
2021/12/28 04:06:21;;;;;;;;;;;4.20;99.90;;;;;;5054859;28;19920;-75
2021/12/28 04:08:49;;;;;;;;;;;4.10;99.90;;;;;;5072844;28;19920;-74
2021/12/28 04:13:52;;;;;;;;;;;4.10;99.90;;;;;;5054688;28;19963;-75
2021/12/28 04:16:20;;;;;;;;;;;4.10;99.90;;;;;;5054410;28;20011;-75
2021/12/28 04:18:46;;;;;;;;;;;4.00;99.90;;;;;;5054665;28;20559;-75
2021/12/28 04:21:13;;;;;;;;;;;4.00;99.90;;;;;;5054595;28;19960;-75
2021/12/28 04:23:40;;;;;;;;;;;3.90;99.90;;;;;;5038578;28;20344;-75
2021/12/28 04:26:07;;;;;;;;;;;3.90;99.90;;;;;;5054755;28;19963;-75
2021/12/28 04:28:33;;;;;;;;;;;3.80;99.90;;;;;;5038079;28;20003;-75
2021/12/28 04:31:00;;;;;;;;;;;3.80;99.90;;;;;;5038153;28;20360;-74
2021/12/28 04:33:32;;;;;;;;;;;3.70;99.90;;;;;;5054734;28;19920;-75
2021/12/28 04:36:00;;;;;;;;;;;3.70;99.90;;;;;;5038128;28;20395;-75
2021/12/28 04:38:35;;;;;;;;;;;3.70;99.90;;;;;;5072313;28;20452;-75
2021/12/28 04:41:08;;;;;;;;;;;3.70;99.90;;;;;;5054234;28;19967;-75
2021/12/28 04:43:47;;;;;;;;;;;3.70;99.90;;;;;;5071054;28;20390;-74
2021/12/28 04:46:14;;;;;;;;;;;3.80;99.90;;;;;;5037618;28;20372;-74
2021/12/28 04:48:41;;;;;;;;;;;3.80;99.90;;;;;;5053886;28;19924;-75
2021/12/28 04:51:07;;;;;;;;;;;3.80;99.90;;;;;;5037102;28;20359;-74
2021/12/28 04:53:34;;;;;;;;;;;3.80;99.90;;;;;;5036099;28;19920;-74
2021/12/28 04:56:01;;;;;;;;;;;3.80;99.90;;;;;;5053681;28;20007;-75
2021/12/28 04:58:33;;;;;;;;;;;3.80;99.90;;;;;;5054255;28;20399;-75
2021/12/28 05:00:59;;;;;;;;;;;3.80;99.90;;;;;;5052992;28;20422;-75
2021/12/28 05:03:26;;;;;;;;;;;3.80;99.90;;;;;;5052751;28;19970;-75
2021/12/28 05:05:53;;;;;;;;;;;3.80;99.90;;;;;;5053245;28;20023;-75
2021/12/28 05:08:21;;;;;;;;;;;3.80;99.90;;;;;;5071388;28;19990;-75
2021/12/28 05:10:50;;;;;;;;;;;3.80;99.90;;;;;;5053854;28;19924;-75
2021/12/28 05:13:22;;;;;;;;;;;3.80;99.90;;;;;;5037476;28;19966;-75
2021/12/28 05:15:50;;;;;;;;;;;3.80;99.90;;;;;;5053269;28;19950;-75
2021/12/28 05:18:23;;;;;;;;;;;3.80;99.90;;;;;;5052968;28;19925;-75
2021/12/28 05:20:56;;;;;;;;;;;3.80;99.90;;;;;;5070742;28;20015;-75
2021/12/28 05:23:23;;;;;;;;;;;3.80;99.90;;;;;;5035611;28;20380;-75
2021/12/28 05:25:52;;;;;;;;;;;3.80;99.90;;;;;;5069598;28;19920;-75
2021/12/28 05:28:20;;;;;;;;;;;3.80;99.90;;;;;;5054985;28;19982;-75
2021/12/28 05:30:52;;;;;;;;;;;3.70;99.90;;;;;;5057922;28;20027;-75
2021/12/28 05:33:25;;;;;;;;;;;3.70;99.90;;;;;;5040659;28;20009;-75
2021/12/28 05:35:52;;;;;;;;;;;3.70;99.90;;;;;;5057787;28;20315;-75
2021/12/28 05:38:19;;;;;;;;;;;3.80;99.90;;;;;;5057460;28;19978;-75
2021/12/28 05:40:52;;;;;;;;;;;3.80;99.90;;;;;;5057351;28;20402;-75
2021/12/28 05:43:19;;;;;;;;;;;3.80;99.90;;;;;;5056658;28;20438;-75
2021/12/28 05:45:46;;;;;;;;;;;3.90;99.90;;;;;;5041146;28;19920;-75
2021/12/28 05:48:13;;;;;;;;;;;3.90;99.90;;;;;;5057080;28;20289;-76
2021/12/28 05:50:40;;;;;;;;;;;4.00;99.90;;;;;;5040946;28;19924;-75
2021/12/28 05:53:07;;;;;;;;;;;4.00;99.90;;;;;;5040226;28;19921;-75
2021/12/28 05:55:35;;;;;;;;;;;4.00;99.90;;;;;;5040824;28;19999;-76
2021/12/28 05:58:06;;;;;;;;;;;4.10;99.90;;;;;;5057039;28;19952;-76
2021/12/28 06:00:33;;;;;;;;;;;4.20;99.90;;;;;;5040495;28;20057;-76
2021/12/28 06:03:05;;;;;;;;;;;4.20;99.90;;;;;;5053493;28;19926;-75
2021/12/28 06:05:37;;;;;;;;;;;4.20;99.90;;;;;;5033016;28;19928;-75
2021/12/28 06:08:04;;;;;;;;;;;4.20;99.90;;;;;;5028884;28;19920;-76
2021/12/28 06:10:35;;;;;;;;;;;4.20;99.90;;;;;;5027516;28;20432;-76
2021/12/28 06:13:08;;;;;;;;;;;4.10;99.90;;;;;;5017936;28;19920;-75
2021/12/28 06:15:34;;;;;;;;;;;4.10;99.90;;;;;;5020211;28;19921;-76
2021/12/28 06:18:01;;;;;;;;;;;4.10;99.90;;;;;;5020078;28;19974;-76
2021/12/28 06:20:34;;;;;;;;;;;4.10;99.90;;;;;;5049897;28;19927;-76
2021/12/28 06:23:01;;;;;;;;;;;4.20;99.90;;;;;;5032895;28;20020;-77
2021/12/28 06:25:27;;;;;;;;;;;4.30;99.90;;;;;;5035051;28;19925;-76
2021/12/28 06:27:54;;;;;;;;;;;4.30;99.90;;;;;;5035909;28;19971;-75
2021/12/28 06:30:21;;;;;;;;;;;4.30;99.90;;;;;;5016430;28;20009;-74
2021/12/28 06:32:53;;;;;;;;;;;4.30;99.90;;;;;;5023560;28;19952;-76
2021/12/28 06:35:26;;;;;;;;;;;4.30;99.90;;;;;;5034071;28;19983;-75
2021/12/28 06:37:53;;;;;;;;;;;4.20;99.90;;;;;;5019880;28;19921;-75
2021/12/28 06:40:19;;;;;;;;;;;4.20;99.90;;;;;;5053812;28;20016;-76
2021/12/28 06:42:46;;;;;;;;;;;4.20;99.90;;;;;;5013711;28;20389;-76
2021/12/28 06:45:18;;;;;;;;;;;4.10;99.90;;;;;;5038229;28;20024;-76
2021/12/28 06:47:46;;;;;;;;;;;4.20;99.90;;;;;;5039616;28;19966;-76
2021/12/28 06:50:18;;;;;;;;;;;4.10;99.90;;;;;;5055721;28;20018;-76
2021/12/28 06:52:50;;;;;;;;;;;4.10;99.90;;;;;;5018542;28;19932;-75
2021/12/28 06:55:22;;;;;;;;;;;4.10;99.90;;;;;;5024306;28;20419;-75
2021/12/28 06:57:50;;;;;;;;;;;4.10;99.90;;;;;;5016365;28;19925;-75
2021/12/28 07:00:19;;;;;;;;;;;4.20;99.90;;;;;;5021209;28;19956;-75
2021/12/28 07:02:46;;;;;;;;;;;4.40;99.90;;;;;;5051589;28;20338;-75
2021/12/28 07:05:16;;;;;;;;;;;4.40;99.90;;;;;;4999145;28;19975;-75
2021/12/28 07:07:47;;;;;;;;;;;4.40;99.90;;;;;;5017077;28;19921;-75
2021/12/28 07:10:20;;;;;;;;;;;4.40;99.90;;;;;;5009390;28;20029;-75
2021/12/28 07:12:50;;;;;;;;;;;4.40;99.90;;;;;;5053305;28;19928;-75
2021/12/28 07:15:18;;;;;;;;;;;4.50;99.90;;;;;;5036408;28;19921;-75
2021/12/28 07:17:50;;;;;;;;;;;4.50;99.90;;;;;;5036831;28;19928;-75
2021/12/28 07:20:17;;;;;;;;;;;4.50;99.90;;;;;;5052807;28;20003;-75
2021/12/28 07:22:48;;;;;;;;;;;4.60;99.90;;;;;;5035480;28;20013;-75
2021/12/28 07:25:15;;;;;;;;;;;4.60;99.90;;;;;;5046881;28;20018;-75
2021/12/28 07:27:42;;;;;;;;;;;4.60;99.90;;;;;;5035820;28;20381;-75
2021/12/28 07:30:14;;;;;;;;;;;4.60;99.90;;;;;;5035781;28;20377;-75
2021/12/28 07:32:45;;;;;;;;;;;4.50;99.90;;;;;;5019874;28;19960;-74
2021/12/28 07:35:14;;;;;;;;;;;4.50;99.90;;;;;;5053349;28;19967;-75
2021/12/28 07:37:41;;;;;;;;;;;4.50;99.90;;;;;;5044431;28;19967;-74
2021/12/28 07:40:15;;;;;;;;;;;4.50;99.90;;;;;;5072237;28;20292;-75
2021/12/28 07:42:47;;;;;;;;;;;4.50;99.90;;;;;;5039352;28;19920;-76
2021/12/28 07:45:19;;;;;;;;;;;4.50;99.90;;;;;;5055661;28;20070;-75
2021/12/28 07:47:51;;;;;;;;;;;4.60;99.90;;;;;;5056400;28;19973;-75
2021/12/28 07:50:18;;;;;;;;;;;4.60;99.90;;;;;;5071526;28;19921;-75
2021/12/28 07:52:45;;;;;;;;;;;4.60;99.90;;;;;;5072745;28;19921;-75
2021/12/28 07:55:12;;;;;;;;;;;4.60;99.90;;;;;;5038924;28;19920;-75
2021/12/28 07:57:44;;;;;;;;;;;4.70;99.90;;;;;;5055229;28;19921;-75
2021/12/28 08:00:20;;;;;;;;;;;4.60;99.90;;;;;;5055578;28;19926;-75
2021/12/28 08:02:48;;;;;;;;;;;4.60;99.90;;;;;;5055041;28;19927;-75
2021/12/28 08:05:20;;;;;;;;;;;4.70;99.90;;;;;;5039480;28;19974;-75
2021/12/28 08:07:47;;;;;;;;;;;4.70;99.90;;;;;;5055073;28;19942;-75
2021/12/28 08:10:21;;;;;;;;;;;4.70;99.90;;;;;;5055208;28;20368;-75
2021/12/28 08:12:49;;;;;;;;;;;4.70;99.90;;;;;;5054650;28;20377;-75
2021/12/28 08:15:21;;;;;;;;;;;4.80;99.90;;;;;;5039289;28;20292;-75
2021/12/28 08:17:48;;;;;;;;;;;4.80;99.90;;;;;;5055167;28;20007;-75
2021/12/28 08:20:20;;;;;;;;;;;4.80;99.90;;;;;;5054916;28;20367;-76
2021/12/28 08:22:51;;;;;;;;;;;4.80;99.90;;;;;;5054412;28;19921;-75
2021/12/28 08:25:24;;;;;;;;;;;4.90;99.90;;;;;;5071664;28;19943;-75
2021/12/28 08:27:52;;;;;;;;;;;4.90;99.90;;;;;;5054481;28;19924;-75
2021/12/28 08:30:23;;;;;;;;;;;4.90;99.90;;;;;;5038792;28;20427;-75
2021/12/28 08:32:51;;;;;;;;;;;4.90;99.90;;;;;;5054707;28;19927;-75
2021/12/28 08:35:18;;;;;;;;;;;5.00;99.90;;;;;;5054461;28;20438;-75
2021/12/28 08:37:50;;;;;;;;;;;5.00;99.90;;;;;;5054436;28;20410;-75
2021/12/28 08:40:17;;;;;;;;;;;5.00;99.90;;;;;;5053887;28;20018;-75
2021/12/28 08:42:44;;;;;;;;;;;5.00;99.90;;;;;;5036979;28;19926;-75
2021/12/28 08:45:16;;;;;;;;;;;5.00;99.90;;;;;;5054400;28;19982;-75
2021/12/28 08:47:44;;;;;;;;;;;5.10;99.90;;;;;;5037490;28;20452;-75
2021/12/28 08:50:17;;;;;;;;;;;5.10;99.90;;;;;;5054878;28;19926;-75
2021/12/28 08:52:44;;;;;;;;;;;5.20;99.90;;;;;;5053520;28;19927;-75
2021/12/28 08:55:11;;;;;;;;;;;5.30;99.90;;;;;;5037642;28;19920;-75
2021/12/28 08:57:42;;;;;;;;;;;5.30;99.90;;;;;;5054664;28;19924;-75
2021/12/28 09:00:12;;;;;;;;;;;5.30;99.90;;;;;;5070308;28;19927;-75
2021/12/28 09:02:44;;;;;;;;;;;5.40;99.90;;;;;;5051987;28;19920;-75
2021/12/28 09:05:11;;;;;;;;;;;5.40;99.90;;;;;;5053183;28;19931;-75
2021/12/28 09:07:37;;;;;;;;;;;5.40;99.90;;;;;;5053096;28;19920;-75
2021/12/28 09:10:10;;;;;;;;;;;5.50;99.90;;;;;;5053004;28;19948;-75
2021/12/28 09:12:44;;;;;;;;;;;5.50;99.90;;;;;;5053764;28;19920;-75
2021/12/28 09:15:11;;;;;;;;;;;5.50;99.90;;;;;;5053805;28;20024;-75
2021/12/28 09:17:38;;;;;;;;;;;5.60;99.90;;;;;;5037073;28;19921;-75
2021/12/28 09:20:07;;;;;;;;;;;5.70;99.90;;;;;;5053299;28;19930;-75
2021/12/28 09:22:34;;;;;;;;;;;5.70;99.90;;;;;;5071163;28;19992;-75
2021/12/28 09:25:01;;;;;;;;;;;5.80;99.90;;;;;;5053619;28;19925;-75
2021/12/28 09:27:27;;;;;;;;;;;5.80;99.90;;;;;;5071424;28;20011;-75
2021/12/28 09:29:54;;;;;;;;;;;5.90;99.90;;;;;;5037020;28;20377;-75
2021/12/28 09:32:20;;;;;;;;;;;5.90;99.90;;;;;;5071186;28;19928;-76
2021/12/28 09:34:49;;;;;;;;;;;5.90;99.90;;;;;;5036687;28;19924;-75
2021/12/28 09:37:16;;;;;;;;;;;5.90;99.90;;;;;;5036890;28;19943;-76
2021/12/28 09:39:48;;;;;;;;;;;6.00;99.90;;;;;;5071240;28;19921;-75
2021/12/28 09:42:14;;;;;;;;;;;6.00;99.90;;;;;;5053634;28;19977;-75
2021/12/28 09:44:47;;;;;;;;;;;6.10;99.90;;;;;;5071122;28;20365;-75
2021/12/28 09:47:20;;;;;;;;;;;6.10;99.90;;;;;;5054320;28;19948;-75
2021/12/28 09:49:52;;;;;;;;;;;6.20;99.90;;;;;;5037422;28;19920;-75
2021/12/28 09:52:19;;;;;;;;;;;6.30;99.90;;;;;;5053425;28;19952;-75
2021/12/28 09:54:51;;;;;;;;;;;6.30;99.90;;;;;;5053068;28;20458;-75
2021/12/28 09:57:18;;;;;;;;;;;6.40;99.90;;;;;;5069932;28;19921;-75
2021/12/28 09:59:45;;;;;;;;;;;6.40;99.90;;;;;;5071146;28;20023;-75
2021/12/28 10:02:12;;;;;;;;;;;6.50;99.90;;;;;;5053387;28;20007;-75
2021/12/28 10:04:54;;;;;;;;;;;6.60;99.90;;;;;;5052825;28;19925;-75
2021/12/28 10:07:28;;;;;;;;;;;6.60;99.90;;;;;;5050900;28;19920;-75
2021/12/28 10:10:00;;;;;;;;;;;6.70;99.90;;;;;;5013836;28;20633;-74
2021/12/28 10:12:28;;;;;;;;;;;6.70;99.90;;;;;;5047114;28;19957;-75
2021/12/28 10:15:08;;;;;;;;;;;6.80;99.90;;;;;;5037754;28;19921;-74
2021/12/28 10:17:36;;;;;;;;;;;6.90;99.90;;;;;;5036777;28;19971;-75
2021/12/28 10:20:09;;;;;;;;;;;6.90;99.90;;;;;;5037234;28;19921;-75
2021/12/28 10:22:46;;;;;;;;;;;7.00;99.90;;;;;;5036931;28;19974;-75
2021/12/28 10:25:21;;;;;;;;;;;7.10;99.90;;;;;;5037487;28;19921;-75
2021/12/28 10:27:50;;;;;;;;;;;7.20;99.90;;;;;;5036832;28;20484;-74
2021/12/28 10:30:21;;;;;;;;;;;7.20;99.90;;;;;;5018693;28;19976;-75
2021/12/28 10:32:50;;;;;;;;;;;7.30;99.90;;;;;;5036024;28;19931;-75
2021/12/28 10:35:27;;;;;;;;;;;7.30;99.90;;;;;;5036775;28;20384;-75
2021/12/28 10:38:04;;;;;;;;;;;7.40;99.90;;;;;;5038115;28;19970;-75
2021/12/28 10:40:40;;;;;;;;;;;7.30;99.90;;;;;;5037107;28;19971;-75
2021/12/28 10:43:09;;;;;;;;;;;7.50;99.90;;;;;;5036491;28;19921;-74
2021/12/28 10:45:54;;;;;;;;;;;7.50;99.90;;;;;;5054406;28;20357;-75
2021/12/28 10:48:24;;;;;;;;;;;7.60;99.90;;;;;;5036277;28;19921;-74
2021/12/28 10:51:09;;;;;;;;;;;7.80;99.90;;;;;;5036261;28;19921;-74
2021/12/28 10:53:44;;;;;;;;;;;7.90;99.90;;;;;;5019145;28;20428;-74
2021/12/28 10:56:17;;;;;;;;;;;8.00;99.90;;;;;;5020594;28;20016;-75
2021/12/28 10:58:46;;;;;;;;;;;8.00;99.90;;;;;;5019057;28;19927;-74
2021/12/28 11:01:17;;;;;;;;;;;8.10;99.90;;;;;;5039063;28;19921;-74
2021/12/28 11:03:50;;;;;;;;;;;8.10;99.90;;;;;;5036243;28;19924;-74
2021/12/28 11:06:22;;;;;;;;;;;8.10;99.90;;;;;;5032243;28;19952;-74
2021/12/28 11:08:54;;;;;;;;;;;8.20;99.90;;;;;;5019887;28;19924;-74
2021/12/28 11:11:25;;;;;;;;;;;8.30;99.90;;;;;;5036189;28;20355;-74
2021/12/28 11:13:58;;;;;;;;;;;8.40;99.90;;;;;;5052894;28;19924;-74
2021/12/28 11:16:26;;;;;;;;;;;8.60;99.90;;;;;;5035680;28;19921;-74
2021/12/28 11:18:59;;;;;;;;;;;8.70;99.90;;;;;;5036171;28;19950;-74
2021/12/28 11:21:49;;;;;;;;;;;8.70;99.90;;;;;;5035679;28;19943;-74
2021/12/28 11:24:17;;;;;;;;;;;8.60;99.90;;;;;;5025556;28;19943;-74
2021/12/28 11:26:49;;;;;;;;;;;8.60;99.90;;;;;;5035308;28;20015;-74
2021/12/28 11:29:20;;;;;;;;;;;8.60;99.90;;;;;;5052194;28;19921;-74
2021/12/28 11:32:04;;;;;;;;;;;8.50;99.90;;;;;;5035545;28;19968;-75
2021/12/28 11:34:32;;;;;;;;;;;8.50;99.90;;;;;;5051475;28;19927;-74
2021/12/28 11:37:00;;;;;;;;;;;8.40;99.90;;;;;;5035353;28;20379;-74
2021/12/28 11:39:35;;;;;;;;;;;8.40;99.90;;;;;;5035128;28;20011;-75
2021/12/28 11:42:08;;;;;;;;;;;8.30;99.90;;;;;;5036340;28;19921;-74
2021/12/28 11:44:35;;;;;;;;;;;8.30;99.90;;;;;;5035148;28;19928;-74
2021/12/28 11:47:03;;;;;;;;;;;8.20;99.90;;;;;;5034926;28;19921;-74
2021/12/28 11:49:35;;;;;;;;;;;8.30;99.90;;;;;;5035171;28;19943;-74
2021/12/28 11:52:09;;;;;;;;;;;8.30;99.90;;;;;;5034923;28;19920;-74
2021/12/28 11:54:45;;;;;;;;;;;8.30;99.90;;;;;;5034336;28;19966;-74
2021/12/28 11:57:19;;;;;;;;;;;8.30;99.90;;;;;;5034946;28;20284;-74
2021/12/28 11:59:55;;;;;;;;;;;8.40;99.90;;;;;;5019185;28;20292;-74
2021/12/28 12:02:34;;;;;;;;;;;8.40;99.90;;;;;;5034703;28;20415;-74
2021/12/28 12:05:10;;;;;;;;;;;8.50;99.90;;;;;;5034885;28;19920;-74
2021/12/28 12:07:39;;;;;;;;;;;8.50;99.90;;;;;;5034776;28;19920;-74
2021/12/28 12:10:27;;;;;;;;;;;8.60;99.90;;;;;;5034844;28;19921;-74
2021/12/28 12:12:55;;;;;;;;;;;8.60;99.90;;;;;;5034361;28;19925;-74
2021/12/28 12:15:23;;;;;;;;;;;8.70;99.90;;;;;;5018318;28;20608;-74
2021/12/28 12:17:55;;;;;;;;;;;8.70;99.90;;;;;;5034568;28;20023;-74
2021/12/28 12:20:24;;;;;;;;;;;8.70;99.90;;;;;;5051157;28;20015;-74
2021/12/28 12:22:52;;;;;;;;;;;8.80;99.90;;;;;;5034068;28;19927;-74
2021/12/28 12:25:31;;;;;;;;;;;8.80;99.90;;;;;;5034445;28;19921;-74
2021/12/28 12:28:04;;;;;;;;;;;8.80;99.90;;;;;;5035438;28;19921;-74
2021/12/28 12:30:43;;;;;;;;;;;8.90;99.90;;;;;;5034472;28;20388;-74
2021/12/28 12:33:10;;;;;;;;;;;8.90;99.90;;;;;;5033831;28;20034;-74
2021/12/28 12:35:43;;;;;;;;;;;8.90;99.90;;;;;;5050968;28;20312;-74
2021/12/28 12:38:15;;;;;;;;;;;9.00;99.90;;;;;;5052279;28;19971;-74
2021/12/28 12:40:59;;;;;;;;;;;9.00;99.90;;;;;;5049545;28;19931;-74
2021/12/28 12:43:27;;;;;;;;;;;9.10;99.90;;;;;;5044016;28;19950;-74
2021/12/28 12:46:12;;;;;;;;;;;9.10;99.90;;;;;;5033213;28;19921;-76
2021/12/28 12:48:44;;;;;;;;;;;9.10;99.90;;;;;;5034801;28;19970;-74
2021/12/28 12:51:17;;;;;;;;;;;9.20;99.90;;;;;;5035462;28;19952;-74
2021/12/28 12:53:54;;;;;;;;;;;9.30;99.90;;;;;;5035979;28;19990;-74
2021/12/28 12:56:22;;;;;;;;;;;9.40;99.90;;;;;;5047897;28;19929;-74
2021/12/28 12:58:50;;;;;;;;;;;9.40;99.90;;;;;;5034368;28;19935;-74
2021/12/28 13:01:38;;;;;;;;;;;9.40;99.90;;;;;;5042065;28;19920;-74
2021/12/28 13:04:24;;;;;;;;;;;9.40;99.90;;;;;;5027845;28;20420;-74
2021/12/28 13:07:02;;;;;;;;;;;9.40;99.90;;;;;;5029971;28;19928;-74
2021/12/28 13:09:30;;;;;;;;;;;9.40;99.90;;;;;;5031269;28;19972;-74
2021/12/28 13:12:01;;;;;;;;;;;9.40;99.90;;;;;;5031527;28;20304;-74
2021/12/28 13:14:29;;;;;;;;;;;9.40;99.90;;;;;;5030951;28;19963;-74
2021/12/28 13:17:05;;;;;;;;;;;9.50;99.90;;;;;;5017321;28;20059;-74
2021/12/28 13:19:38;;;;;;;;;;;9.50;99.90;;;;;;5044756;28;19947;-74
2021/12/28 13:22:14;;;;;;;;;;;9.50;99.90;;;;;;5028760;28;19931;-74
2021/12/28 13:24:42;;;;;;;;;;;9.50;99.90;;;;;;5034044;28;19921;-74
2021/12/28 13:27:17;;;;;;;;;;;9.40;99.90;;;;;;5033804;28;20351;-74
2021/12/28 13:29:49;;;;;;;;;;;9.40;99.90;;;;;;5018501;28;19986;-75
2021/12/28 13:32:22;;;;;;;;;;;9.40;99.90;;;;;;5035423;28;20103;-73
2021/12/28 13:35:09;;;;;;;;;;;9.40;99.90;;;;;;5044504;28;20402;-74
2021/12/28 13:37:44;;;;;;;;;;;9.40;99.90;;;;;;5033733;28;19920;-74
2021/12/28 13:40:18;;;;;;;;;;;9.30;99.90;;;;;;5034323;28;19980;-73
2021/12/28 13:42:59;;;;;;;;;;;9.30;99.90;;;;;;5017267;28;19921;-74
2021/12/28 13:45:31;;;;;;;;;;;9.30;99.90;;;;;;5034697;28;20309;-74
2021/12/28 13:48:12;;;;;;;;;;;9.30;99.90;;;;;;5034721;28;19925;-74
2021/12/28 13:50:42;;;;;;;;;;;9.30;99.90;;;;;;5050370;28;19921;-74
2021/12/28 13:53:16;;;;;;;;;;;9.20;99.90;;;;;;5035834;28;19921;-73
2021/12/28 13:55:49;;;;;;;;;;;9.20;99.90;;;;;;5034243;28;19921;-74
2021/12/28 13:58:26;;;;;;;;;;;9.20;99.90;;;;;;5030923;28;19920;-74
2021/12/28 14:01:01;;;;;;;;;;;9.20;99.90;;;;;;5051089;28;19928;-74
2021/12/28 14:03:28;;;;;;;;;;;9.20;99.90;;;;;;5016953;28;20412;-74
2021/12/28 14:06:00;;;;;;;;;;;9.20;99.90;;;;;;5025072;28;20454;-74
2021/12/28 14:08:28;;;;;;;;;;;9.20;99.90;;;;;;5026353;28;19928;-74
2021/12/28 14:10:57;;;;;;;;;;;9.20;99.90;;;;;;5051850;28;19927;-74
2021/12/28 14:13:24;;;;;;;;;;;9.20;99.90;;;;;;5033085;28;19929;-74
2021/12/28 14:16:03;;;;;;;;;;;9.20;99.90;;;;;;5050113;28;19921;-74
2021/12/28 14:18:33;;;;;;;;;;;9.30;99.90;;;;;;5033794;28;20007;-74
2021/12/28 14:21:11;;;;;;;;;;;9.30;99.90;;;;;;5029100;28;20347;-74
2021/12/28 14:23:45;;;;;;;;;;;9.30;99.90;;;;;;5033777;28;19920;-74
2021/12/28 14:26:21;;;;;;;;;;;9.20;99.90;;;;;;5051448;28;19920;-74
2021/12/28 14:29:15;;;;;;;;;;;9.20;99.90;;;;;;5053651;28;19920;-74
2021/12/28 14:31:48;;;;;;;;;;;9.20;99.90;;;;;;5052389;28;19927;-74
2021/12/28 14:34:31;;;;;;;;;;;9.30;99.90;;;;;;5072458;28;20435;-74
2021/12/28 14:37:17;;;;;;;;;;;9.30;99.90;;;;;;5055867;28;20007;-74
2021/12/28 14:39:52;;;;;;;;;;;9.30;99.90;;;;;;5023977;28;19920;-74
2021/12/28 14:42:21;;;;;;;;;;;9.20;99.90;;;;;;5053480;28;19963;-74
2021/12/28 14:44:49;;;;;;;;;;;9.20;99.90;;;;;;5034344;28;19990;-74
2021/12/28 14:47:26;;;;;;;;;;;9.20;99.90;;;;;;5036034;28;19927;-74
2021/12/28 14:49:58;;;;;;;;;;;9.20;99.90;;;;;;5019789;28;19925;-74
2021/12/28 14:52:25;;;;;;;;;;;9.30;99.90;;;;;;5033989;28;19978;-74
2021/12/28 14:54:58;;;;;;;;;;;9.30;99.90;;;;;;5034685;28;19925;-74